sensor_id;sensor_type;location;lat;lon;timestamp;P1;durP1;ratioP1;P2;durP2;ratioP2
60014;SDS011;45867;52.480;6.056;2022-07-18T00:00:40;11.57;;;5.57;;
60014;SDS011;45867;52.480;6.056;2022-07-18T00:03:06;16.83;;;5.78;;
60014;SDS011;45867;52.480;6.056;2022-07-18T00:05:31;12.77;;;5.72;;
60014;SDS011;45867;52.480;6.056;2022-07-18T00:07:56;14.38;;;5.20;;
60014;SDS011;45867;52.480;6.056;2022-07-18T00:10:22;10.40;;;5.63;;
60014;SDS011;45867;52.480;6.056;2022-07-18T00:12:48;11.23;;;5.93;;
60014;SDS011;45867;52.480;6.056;2022-07-18T00:15:13;12.88;;;5.72;;
60014;SDS011;45867;52.480;6.056;2022-07-18T00:17:38;17.63;;;6.03;;
60014;SDS011;45867;52.480;6.056;2022-07-18T00:20:05;11.32;;;5.72;;
60014;SDS011;45867;52.480;6.056;2022-07-18T00:22:31;8.93;;;5.63;;
60014;SDS011;45867;52.480;6.056;2022-07-18T00:24:56;11.50;;;5.73;;
60014;SDS011;45867;52.480;6.056;2022-07-18T00:27:21;15.37;;;6.17;;
60014;SDS011;45867;52.480;6.056;2022-07-18T00:29:47;12.07;;;5.90;;
60014;SDS011;45867;52.480;6.056;2022-07-18T00:32:12;14.47;;;6.27;;
60014;SDS011;45867;52.480;6.056;2022-07-18T00:34:37;19.97;;;6.17;;
60014;SDS011;45867;52.480;6.056;2022-07-18T00:37:02;17.02;;;6.97;;
60014;SDS011;45867;52.480;6.056;2022-07-18T00:39:28;16.63;;;6.57;;
60014;SDS011;45867;52.480;6.056;2022-07-18T00:41:53;11.23;;;6.22;;
60014;SDS011;45867;52.480;6.056;2022-07-18T00:44:19;10.75;;;6.53;;
60014;SDS011;45867;52.480;6.056;2022-07-18T00:46:45;12.65;;;5.78;;
60014;SDS011;45867;52.480;6.056;2022-07-18T00:49:10;13.43;;;6.20;;
60014;SDS011;45867;52.480;6.056;2022-07-18T00:51:35;14.25;;;7.35;;
60014;SDS011;45867;52.480;6.056;2022-07-18T00:54:03;12.75;;;5.88;;
60014;SDS011;45867;52.480;6.056;2022-07-18T00:56:28;13.93;;;6.25;;
60014;SDS011;45867;52.480;6.056;2022-07-18T00:58:53;15.73;;;5.83;;
60014;SDS011;45867;52.480;6.056;2022-07-18T01:01:19;11.63;;;5.77;;
60014;SDS011;45867;52.480;6.056;2022-07-18T01:04:03;13.02;;;5.97;;
60014;SDS011;45867;52.480;6.056;2022-07-18T01:06:28;11.57;;;6.10;;
60014;SDS011;45867;52.480;6.056;2022-07-18T01:08:53;13.88;;;5.97;;
60014;SDS011;45867;52.480;6.056;2022-07-18T01:11:19;16.40;;;6.10;;
60014;SDS011;45867;52.480;6.056;2022-07-18T01:13:46;11.02;;;5.80;;
60014;SDS011;45867;52.480;6.056;2022-07-18T01:16:13;14.60;;;6.30;;
60014;SDS011;45867;52.480;6.056;2022-07-18T01:18:43;12.20;;;5.97;;
60014;SDS011;45867;52.480;6.056;2022-07-18T01:21:08;12.02;;;5.70;;
60014;SDS011;45867;52.480;6.056;2022-07-18T01:23:33;9.93;;;5.70;;
60014;SDS011;45867;52.480;6.056;2022-07-18T01:25:59;11.38;;;5.50;;
60014;SDS011;45867;52.480;6.056;2022-07-18T01:28:24;12.37;;;5.70;;
60014;SDS011;45867;52.480;6.056;2022-07-18T01:30:49;12.65;;;6.28;;
60014;SDS011;45867;52.480;6.056;2022-07-18T01:33:14;11.17;;;6.27;;
60014;SDS011;45867;52.480;6.056;2022-07-18T01:35:40;15.03;;;6.90;;
60014;SDS011;45867;52.480;6.056;2022-07-18T01:38:05;12.75;;;6.22;;
60014;SDS011;45867;52.480;6.056;2022-07-18T01:40:31;11.88;;;6.13;;
60014;SDS011;45867;52.480;6.056;2022-07-18T01:42:56;12.60;;;6.05;;
60014;SDS011;45867;52.480;6.056;2022-07-18T01:45:22;14.48;;;6.68;;
60014;SDS011;45867;52.480;6.056;2022-07-18T01:47:47;11.30;;;5.65;;
60014;SDS011;45867;52.480;6.056;2022-07-18T01:50:13;11.38;;;5.82;;
60014;SDS011;45867;52.480;6.056;2022-07-18T01:52:38;10.35;;;5.32;;
60014;SDS011;45867;52.480;6.056;2022-07-18T01:55:06;13.25;;;6.25;;
60014;SDS011;45867;52.480;6.056;2022-07-18T01:57:32;14.60;;;5.97;;
60014;SDS011;45867;52.480;6.056;2022-07-18T01:59:57;12.65;;;6.00;;
60014;SDS011;45867;52.480;6.056;2022-07-18T02:02:22;10.13;;;6.65;;
60014;SDS011;45867;52.480;6.056;2022-07-18T02:04:48;16.47;;;5.50;;
60014;SDS011;45867;52.480;6.056;2022-07-18T02:07:29;11.15;;;5.85;;
60014;SDS011;45867;52.480;6.056;2022-07-18T02:09:55;11.85;;;5.93;;
60014;SDS011;45867;52.480;6.056;2022-07-18T02:12:20;13.52;;;5.78;;
60014;SDS011;45867;52.480;6.056;2022-07-18T02:14:46;20.00;;;6.60;;
60014;SDS011;45867;52.480;6.056;2022-07-18T02:17:11;12.68;;;6.18;;
60014;SDS011;45867;52.480;6.056;2022-07-18T02:19:36;10.60;;;6.47;;
60014;SDS011;45867;52.480;6.056;2022-07-18T02:22:02;12.10;;;6.35;;
60014;SDS011;45867;52.480;6.056;2022-07-18T02:24:27;11.98;;;6.45;;
60014;SDS011;45867;52.480;6.056;2022-07-18T02:26:52;13.70;;;6.50;;
60014;SDS011;45867;52.480;6.056;2022-07-18T02:29:17;16.30;;;6.55;;
60014;SDS011;45867;52.480;6.056;2022-07-18T02:31:43;9.85;;;5.82;;
60014;SDS011;45867;52.480;6.056;2022-07-18T02:34:08;12.98;;;5.95;;
60014;SDS011;45867;52.480;6.056;2022-07-18T02:36:37;10.85;;;6.18;;
60014;SDS011;45867;52.480;6.056;2022-07-18T02:39:03;11.68;;;6.90;;
60014;SDS011;45867;52.480;6.056;2022-07-18T02:41:28;11.45;;;5.75;;
60014;SDS011;45867;52.480;6.056;2022-07-18T02:43:53;10.75;;;6.53;;
60014;SDS011;45867;52.480;6.056;2022-07-18T02:46:18;13.60;;;6.83;;
60014;SDS011;45867;52.480;6.056;2022-07-18T02:48:44;14.55;;;6.10;;
60014;SDS011;45867;52.480;6.056;2022-07-18T02:51:09;10.73;;;6.10;;
60014;SDS011;45867;52.480;6.056;2022-07-18T02:53:34;9.82;;;6.30;;
60014;SDS011;45867;52.480;6.056;2022-07-18T02:55:59;10.50;;;6.03;;
60014;SDS011;45867;52.480;6.056;2022-07-18T02:58:25;11.98;;;6.22;;
60014;SDS011;45867;52.480;6.056;2022-07-18T03:00:50;12.48;;;6.47;;
60014;SDS011;45867;52.480;6.056;2022-07-18T03:03:15;13.15;;;6.38;;
60014;SDS011;45867;52.480;6.056;2022-07-18T03:05:40;11.37;;;5.63;;
60014;SDS011;45867;52.480;6.056;2022-07-18T03:08:06;18.80;;;6.07;;
60014;SDS011;45867;52.480;6.056;2022-07-18T03:10:31;10.45;;;5.95;;
60014;SDS011;45867;52.480;6.056;2022-07-18T03:12:56;10.88;;;6.40;;
60014;SDS011;45867;52.480;6.056;2022-07-18T03:15:22;20.88;;;6.32;;
60014;SDS011;45867;52.480;6.056;2022-07-18T03:17:47;11.63;;;6.18;;
60014;SDS011;45867;52.480;6.056;2022-07-18T03:20:12;12.33;;;6.33;;
60014;SDS011;45867;52.480;6.056;2022-07-18T03:22:37;16.85;;;6.93;;
60014;SDS011;45867;52.480;6.056;2022-07-18T03:25:03;15.43;;;6.85;;
60014;SDS011;45867;52.480;6.056;2022-07-18T03:27:28;13.80;;;7.00;;
60014;SDS011;45867;52.480;6.056;2022-07-18T03:29:53;14.63;;;6.63;;
60014;SDS011;45867;52.480;6.056;2022-07-18T03:32:18;13.57;;;6.70;;
60014;SDS011;45867;52.480;6.056;2022-07-18T03:34:44;17.63;;;6.85;;
60014;SDS011;45867;52.480;6.056;2022-07-18T03:37:10;15.07;;;6.93;;
60014;SDS011;45867;52.480;6.056;2022-07-18T03:39:35;18.15;;;7.40;;
60014;SDS011;45867;52.480;6.056;2022-07-18T03:42:00;16.27;;;7.10;;
60014;SDS011;45867;52.480;6.056;2022-07-18T03:44:26;15.77;;;6.53;;
60014;SDS011;45867;52.480;6.056;2022-07-18T03:46:51;16.25;;;6.75;;
60014;SDS011;45867;52.480;6.056;2022-07-18T03:49:19;12.52;;;6.88;;
60014;SDS011;45867;52.480;6.056;2022-07-18T03:51:44;12.07;;;6.63;;
60014;SDS011;45867;52.480;6.056;2022-07-18T03:54:09;10.52;;;6.45;;
60014;SDS011;45867;52.480;6.056;2022-07-18T03:56:35;13.70;;;6.72;;
60014;SDS011;45867;52.480;6.056;2022-07-18T03:59:00;12.48;;;6.65;;
60014;SDS011;45867;52.480;6.056;2022-07-18T04:01:25;13.63;;;6.60;;
60014;SDS011;45867;52.480;6.056;2022-07-18T04:03:51;12.30;;;6.70;;
60014;SDS011;45867;52.480;6.056;2022-07-18T04:06:16;15.57;;;7.07;;
60014;SDS011;45867;52.480;6.056;2022-07-18T04:08:41;13.02;;;6.95;;
60014;SDS011;45867;52.480;6.056;2022-07-18T04:11:06;17.37;;;6.87;;
60014;SDS011;45867;52.480;6.056;2022-07-18T04:13:32;12.82;;;6.82;;
60014;SDS011;45867;52.480;6.056;2022-07-18T04:15:57;12.30;;;6.13;;
60014;SDS011;45867;52.480;6.056;2022-07-18T04:18:25;15.77;;;7.07;;
60014;SDS011;45867;52.480;6.056;2022-07-18T04:20:50;14.82;;;6.57;;
60014;SDS011;45867;52.480;6.056;2022-07-18T04:23:15;18.00;;;6.97;;
60014;SDS011;45867;52.480;6.056;2022-07-18T04:25:41;13.23;;;6.43;;
60014;SDS011;45867;52.480;6.056;2022-07-18T04:28:07;15.77;;;6.63;;
60014;SDS011;45867;52.480;6.056;2022-07-18T04:30:33;12.40;;;6.60;;
60014;SDS011;45867;52.480;6.056;2022-07-18T04:33:00;10.57;;;6.63;;
60014;SDS011;45867;52.480;6.056;2022-07-18T04:35:26;12.15;;;6.70;;
60014;SDS011;45867;52.480;6.056;2022-07-18T04:37:51;15.43;;;7.13;;
60014;SDS011;45867;52.480;6.056;2022-07-18T04:40:17;12.65;;;6.65;;
60014;SDS011;45867;52.480;6.056;2022-07-18T04:42:42;12.15;;;7.18;;
60014;SDS011;45867;52.480;6.056;2022-07-18T04:45:08;17.08;;;7.05;;
60014;SDS011;45867;52.480;6.056;2022-07-18T04:47:33;17.33;;;7.60;;
60014;SDS011;45867;52.480;6.056;2022-07-18T04:49:59;13.25;;;7.40;;
60014;SDS011;45867;52.480;6.056;2022-07-18T04:52:24;12.93;;;6.78;;
60014;SDS011;45867;52.480;6.056;2022-07-18T04:54:50;14.05;;;6.75;;
60014;SDS011;45867;52.480;6.056;2022-07-18T04:57:16;13.27;;;6.40;;
60014;SDS011;45867;52.480;6.056;2022-07-18T04:59:41;18.20;;;7.03;;
60014;SDS011;45867;52.480;6.056;2022-07-18T05:02:07;14.23;;;7.10;;
60014;SDS011;45867;52.480;6.056;2022-07-18T05:04:35;17.88;;;6.47;;
60014;SDS011;45867;52.480;6.056;2022-07-18T05:07:00;14.30;;;6.32;;
60014;SDS011;45867;52.480;6.056;2022-07-18T05:09:26;11.73;;;6.57;;
60014;SDS011;45867;52.480;6.056;2022-07-18T05:11:51;14.55;;;6.22;;
60014;SDS011;45867;52.480;6.056;2022-07-18T05:14:16;18.23;;;6.93;;
60014;SDS011;45867;52.480;6.056;2022-07-18T05:16:42;15.98;;;5.90;;
60014;SDS011;45867;52.480;6.056;2022-07-18T05:19:07;10.93;;;5.65;;
60014;SDS011;45867;52.480;6.056;2022-07-18T05:21:32;16.10;;;6.00;;
60014;SDS011;45867;52.480;6.056;2022-07-18T05:23:58;13.43;;;5.75;;
60014;SDS011;45867;52.480;6.056;2022-07-18T05:26:23;13.15;;;5.60;;
60014;SDS011;45867;52.480;6.056;2022-07-18T05:28:48;10.13;;;5.32;;
60014;SDS011;45867;52.480;6.056;2022-07-18T05:31:13;12.38;;;5.80;;
60014;SDS011;45867;52.480;6.056;2022-07-18T05:33:39;11.80;;;5.57;;
60014;SDS011;45867;52.480;6.056;2022-07-18T05:36:04;9.05;;;5.10;;
60014;SDS011;45867;52.480;6.056;2022-07-18T05:38:30;15.43;;;5.30;;
60014;SDS011;45867;52.480;6.056;2022-07-18T05:40:58;10.50;;;5.47;;
60014;SDS011;45867;52.480;6.056;2022-07-18T05:43:23;14.93;;;5.00;;
60014;SDS011;45867;52.480;6.056;2022-07-18T05:45:48;16.38;;;4.63;;
60014;SDS011;45867;52.480;6.056;2022-07-18T05:48:32;11.77;;;5.00;;
60014;SDS011;45867;52.480;6.056;2022-07-18T05:50:57;16.55;;;5.07;;
60014;SDS011;45867;52.480;6.056;2022-07-18T05:53:22;10.85;;;5.05;;
60014;SDS011;45867;52.480;6.056;2022-07-18T05:55:48;8.55;;;4.63;;
60014;SDS011;45867;52.480;6.056;2022-07-18T05:58:13;8.93;;;4.78;;
60014;SDS011;45867;52.480;6.056;2022-07-18T06:00:38;10.38;;;4.85;;
60014;SDS011;45867;52.480;6.056;2022-07-18T06:03:04;8.18;;;4.75;;
60014;SDS011;45867;52.480;6.056;2022-07-18T06:05:30;9.55;;;4.80;;
60014;SDS011;45867;52.480;6.056;2022-07-18T06:07:55;12.90;;;4.70;;
60014;SDS011;45867;52.480;6.056;2022-07-18T06:10:22;9.95;;;5.00;;
60014;SDS011;45867;52.480;6.056;2022-07-18T06:12:47;8.63;;;4.63;;
60014;SDS011;45867;52.480;6.056;2022-07-18T06:15:15;8.05;;;4.68;;
60014;SDS011;45867;52.480;6.056;2022-07-18T06:17:40;11.48;;;5.32;;
60014;SDS011;45867;52.480;6.056;2022-07-18T06:20:06;12.55;;;4.53;;
60014;SDS011;45867;52.480;6.056;2022-07-18T06:22:33;12.70;;;4.95;;
60014;SDS011;45867;52.480;6.056;2022-07-18T06:25:01;13.30;;;4.90;;
60014;SDS011;45867;52.480;6.056;2022-07-18T06:27:42;11.95;;;4.80;;
60014;SDS011;45867;52.480;6.056;2022-07-18T06:30:07;11.10;;;4.53;;
60014;SDS011;45867;52.480;6.056;2022-07-18T06:32:34;11.63;;;4.60;;
60014;SDS011;45867;52.480;6.056;2022-07-18T06:35:00;10.10;;;5.00;;
60014;SDS011;45867;52.480;6.056;2022-07-18T06:37:25;22.92;;;4.88;;
60014;SDS011;45867;52.480;6.056;2022-07-18T06:39:50;11.57;;;5.10;;
60014;SDS011;45867;52.480;6.056;2022-07-18T06:42:15;12.05;;;4.97;;
60014;SDS011;45867;52.480;6.056;2022-07-18T06:44:41;13.07;;;5.20;;
60014;SDS011;45867;52.480;6.056;2022-07-18T06:47:06;10.15;;;5.00;;
60014;SDS011;45867;52.480;6.056;2022-07-18T06:49:31;9.98;;;4.75;;
60014;SDS011;45867;52.480;6.056;2022-07-18T06:51:56;9.73;;;4.80;;
60014;SDS011;45867;52.480;6.056;2022-07-18T06:54:22;9.50;;;5.07;;
60014;SDS011;45867;52.480;6.056;2022-07-18T06:56:52;15.82;;;4.88;;
60014;SDS011;45867;52.480;6.056;2022-07-18T06:59:17;12.50;;;4.57;;
60014;SDS011;45867;52.480;6.056;2022-07-18T07:01:43;17.75;;;4.45;;
60014;SDS011;45867;52.480;6.056;2022-07-18T07:04:08;11.77;;;4.55;;
60014;SDS011;45867;52.480;6.056;2022-07-18T07:06:33;14.38;;;4.20;;
60014;SDS011;45867;52.480;6.056;2022-07-18T07:08:59;11.48;;;4.45;;
60014;SDS011;45867;52.480;6.056;2022-07-18T07:11:24;6.90;;;4.20;;
60014;SDS011;45867;52.480;6.056;2022-07-18T07:13:49;8.50;;;4.00;;
60014;SDS011;45867;52.480;6.056;2022-07-18T07:16:15;8.45;;;4.00;;
60014;SDS011;45867;52.480;6.056;2022-07-18T07:18:40;9.20;;;3.77;;
60014;SDS011;45867;52.480;6.056;2022-07-18T07:21:05;13.05;;;4.22;;
60014;SDS011;45867;52.480;6.056;2022-07-18T07:23:31;13.32;;;3.95;;
60014;SDS011;45867;52.480;6.056;2022-07-18T07:25:56;10.18;;;4.90;;
60014;SDS011;45867;52.480;6.056;2022-07-18T07:28:22;10.00;;;3.85;;
60014;SDS011;45867;52.480;6.056;2022-07-18T07:30:54;8.18;;;3.80;;
60014;SDS011;45867;52.480;6.056;2022-07-18T07:33:19;13.98;;;4.30;;
60014;SDS011;45867;52.480;6.056;2022-07-18T07:35:45;9.95;;;3.42;;
60014;SDS011;45867;52.480;6.056;2022-07-18T07:38:10;12.18;;;3.90;;
60014;SDS011;45867;52.480;6.056;2022-07-18T07:40:42;8.38;;;3.70;;
60014;SDS011;45867;52.480;6.056;2022-07-18T07:43:09;10.95;;;3.55;;
60014;SDS011;45867;52.480;6.056;2022-07-18T07:45:35;11.70;;;3.38;;
60014;SDS011;45867;52.480;6.056;2022-07-18T07:48:01;21.70;;;4.05;;
60014;SDS011;45867;52.480;6.056;2022-07-18T07:50:26;7.10;;;3.03;;
60014;SDS011;45867;52.480;6.056;2022-07-18T07:52:52;8.73;;;3.40;;
60014;SDS011;45867;52.480;6.056;2022-07-18T07:55:17;6.67;;;3.30;;
60014;SDS011;45867;52.480;6.056;2022-07-18T07:57:42;8.27;;;3.40;;
60014;SDS011;45867;52.480;6.056;2022-07-18T08:00:08;7.95;;;2.63;;
60014;SDS011;45867;52.480;6.056;2022-07-18T08:02:34;8.30;;;3.00;;
60014;SDS011;45867;52.480;6.056;2022-07-18T08:04:59;10.23;;;2.95;;
60014;SDS011;45867;52.480;6.056;2022-07-18T08:07:25;8.35;;;2.80;;
60014;SDS011;45867;52.480;6.056;2022-07-18T08:09:50;16.20;;;3.03;;
60014;SDS011;45867;52.480;6.056;2022-07-18T08:12:16;5.23;;;2.40;;
60014;SDS011;45867;52.480;6.056;2022-07-18T08:14:41;7.05;;;2.75;;
60014;SDS011;45867;52.480;6.056;2022-07-18T08:17:07;10.20;;;2.88;;
60014;SDS011;45867;52.480;6.056;2022-07-18T08:19:33;8.30;;;3.10;;
60014;SDS011;45867;52.480;6.056;2022-07-18T08:21:58;12.30;;;2.90;;
60014;SDS011;45867;52.480;6.056;2022-07-18T08:24:23;9.77;;;3.00;;
60014;SDS011;45867;52.480;6.056;2022-07-18T08:26:48;9.50;;;2.78;;
60014;SDS011;45867;52.480;6.056;2022-07-18T08:29:14;6.37;;;3.10;;
60014;SDS011;45867;52.480;6.056;2022-07-18T08:31:39;11.45;;;3.20;;
60014;SDS011;45867;52.480;6.056;2022-07-18T08:34:04;11.60;;;2.92;;
60014;SDS011;45867;52.480;6.056;2022-07-18T08:36:30;7.37;;;2.70;;
60014;SDS011;45867;52.480;6.056;2022-07-18T08:38:55;9.15;;;2.80;;
60014;SDS011;45867;52.480;6.056;2022-07-18T08:41:23;16.35;;;2.83;;
60014;SDS011;45867;52.480;6.056;2022-07-18T08:43:49;7.07;;;2.55;;
60014;SDS011;45867;52.480;6.056;2022-07-18T08:46:14;15.27;;;2.97;;
60014;SDS011;45867;52.480;6.056;2022-07-18T08:48:41;13.15;;;3.22;;
60014;SDS011;45867;52.480;6.056;2022-07-18T08:51:06;11.23;;;2.60;;
60014;SDS011;45867;52.480;6.056;2022-07-18T08:53:32;7.72;;;2.78;;
60014;SDS011;45867;52.480;6.056;2022-07-18T08:55:59;12.52;;;2.10;;
60014;SDS011;45867;52.480;6.056;2022-07-18T08:58:24;7.13;;;2.70;;
60014;SDS011;45867;52.480;6.056;2022-07-18T09:00:49;7.15;;;2.58;;
60014;SDS011;45867;52.480;6.056;2022-07-18T09:03:15;4.40;;;2.17;;
60014;SDS011;45867;52.480;6.056;2022-07-18T09:05:40;10.07;;;2.60;;
60014;SDS011;45867;52.480;6.056;2022-07-18T09:08:18;7.90;;;2.70;;
60014;SDS011;45867;52.480;6.056;2022-07-18T09:10:53;11.47;;;2.80;;
60014;SDS011;45867;52.480;6.056;2022-07-18T09:13:21;12.07;;;2.53;;
60014;SDS011;45867;52.480;6.056;2022-07-18T09:16:03;4.97;;;2.45;;
60014;SDS011;45867;52.480;6.056;2022-07-18T09:18:32;6.10;;;2.55;;
60014;SDS011;45867;52.480;6.056;2022-07-18T09:21:02;7.95;;;2.50;;
60014;SDS011;45867;52.480;6.056;2022-07-18T09:25:53;8.20;;;3.00;;
60014;SDS011;45867;52.480;6.056;2022-07-18T09:28:19;11.07;;;2.43;;
60014;SDS011;45867;52.480;6.056;2022-07-18T09:30:44;8.03;;;2.70;;
60014;SDS011;45867;52.480;6.056;2022-07-18T09:33:09;9.25;;;2.50;;
60014;SDS011;45867;52.480;6.056;2022-07-18T09:35:36;10.20;;;2.95;;
60014;SDS011;45867;52.480;6.056;2022-07-18T09:40:32;7.32;;;2.63;;
60014;SDS011;45867;52.480;6.056;2022-07-18T09:43:00;7.57;;;2.47;;
60014;SDS011;45867;52.480;6.056;2022-07-18T09:45:26;7.13;;;2.10;;
60014;SDS011;45867;52.480;6.056;2022-07-18T09:47:56;8.35;;;2.30;;
60014;SDS011;45867;52.480;6.056;2022-07-18T09:52:57;4.57;;;2.20;;
60014;SDS011;45867;52.480;6.056;2022-07-18T09:55:22;4.75;;;2.28;;
60014;SDS011;45867;52.480;6.056;2022-07-18T09:57:56;4.60;;;2.00;;
60014;SDS011;45867;52.480;6.056;2022-07-18T10:00:22;4.82;;;1.98;;
60014;SDS011;45867;52.480;6.056;2022-07-18T10:02:47;5.88;;;2.35;;
60014;SDS011;45867;52.480;6.056;2022-07-18T10:05:13;6.82;;;2.17;;
60014;SDS011;45867;52.480;6.056;2022-07-18T10:07:38;11.93;;;2.22;;
60014;SDS011;45867;52.480;6.056;2022-07-18T10:10:03;6.93;;;2.15;;
60014;SDS011;45867;52.480;6.056;2022-07-18T10:12:29;4.95;;;2.13;;
60014;SDS011;45867;52.480;6.056;2022-07-18T10:14:55;7.05;;;2.38;;
60014;SDS011;45867;52.480;6.056;2022-07-18T10:17:21;5.30;;;2.08;;
60014;SDS011;45867;52.480;6.056;2022-07-18T10:19:49;10.98;;;2.95;;
60014;SDS011;45867;52.480;6.056;2022-07-18T10:22:14;14.10;;;2.47;;
60014;SDS011;45867;52.480;6.056;2022-07-18T10:24:40;6.95;;;2.17;;
60014;SDS011;45867;52.480;6.056;2022-07-18T10:27:17;8.38;;;2.00;;
60014;SDS011;45867;52.480;6.056;2022-07-18T10:32:33;4.35;;;2.00;;
60014;SDS011;45867;52.480;6.056;2022-07-18T10:34:58;7.03;;;2.40;;
60014;SDS011;45867;52.480;6.056;2022-07-18T10:37:24;8.13;;;2.13;;
60014;SDS011;45867;52.480;6.056;2022-07-18T10:39:50;5.05;;;2.22;;
60014;SDS011;45867;52.480;6.056;2022-07-18T10:42:16;7.13;;;2.13;;
60014;SDS011;45867;52.480;6.056;2022-07-18T10:47:34;7.15;;;2.20;;
60014;SDS011;45867;52.480;6.056;2022-07-18T10:53:03;5.57;;;2.60;;
60014;SDS011;45867;52.480;6.056;2022-07-18T10:55:28;6.65;;;2.40;;
60014;SDS011;45867;52.480;6.056;2022-07-18T11:02:48;5.97;;;2.40;;
60014;SDS011;45867;52.480;6.056;2022-07-18T11:16:20;8.65;;;2.65;;
60014;SDS011;45867;52.480;6.056;2022-07-18T11:21:04;4.88;;;2.40;;
60014;SDS011;45867;52.480;6.056;2022-07-18T11:23:44;13.60;;;2.50;;
60014;SDS011;45867;52.480;6.056;2022-07-18T11:26:15;5.88;;;2.50;;
60014;SDS011;45867;52.480;6.056;2022-07-18T11:28:40;8.65;;;2.80;;
60014;SDS011;45867;52.480;6.056;2022-07-18T11:31:07;6.70;;;2.63;;
60014;SDS011;45867;52.480;6.056;2022-07-18T11:33:47;5.70;;;2.60;;
60014;SDS011;45867;52.480;6.056;2022-07-18T11:36:14;4.55;;;2.47;;
60014;SDS011;45867;52.480;6.056;2022-07-18T11:38:51;9.20;;;2.45;;
60014;SDS011;45867;52.480;6.056;2022-07-18T11:41:18;10.82;;;2.45;;
60014;SDS011;45867;52.480;6.056;2022-07-18T11:43:44;4.25;;;2.40;;
60014;SDS011;45867;52.480;6.056;2022-07-18T11:46:11;6.38;;;2.22;;
60014;SDS011;45867;52.480;6.056;2022-07-18T11:48:36;8.98;;;2.60;;
60014;SDS011;45867;52.480;6.056;2022-07-18T11:51:03;6.13;;;2.60;;
60014;SDS011;45867;52.480;6.056;2022-07-18T11:53:33;12.30;;;2.45;;
60014;SDS011;45867;52.480;6.056;2022-07-18T11:56:02;8.25;;;2.33;;
60014;SDS011;45867;52.480;6.056;2022-07-18T11:58:34;9.25;;;2.60;;
60014;SDS011;45867;52.480;6.056;2022-07-18T12:00:59;8.25;;;2.60;;
60014;SDS011;45867;52.480;6.056;2022-07-18T12:03:25;7.72;;;2.60;;
60014;SDS011;45867;52.480;6.056;2022-07-18T12:05:51;8.48;;;2.60;;
60014;SDS011;45867;52.480;6.056;2022-07-18T12:16:32;13.10;;;2.63;;
60014;SDS011;45867;52.480;6.056;2022-07-18T12:18:59;11.57;;;2.50;;
60014;SDS011;45867;52.480;6.056;2022-07-18T12:21:24;7.72;;;2.50;;
60014;SDS011;45867;52.480;6.056;2022-07-18T12:24:24;8.38;;;2.80;;
60014;SDS011;45867;52.480;6.056;2022-07-18T12:26:48;7.43;;;2.53;;
60014;SDS011;45867;52.480;6.056;2022-07-18T12:29:14;5.65;;;2.30;;
60014;SDS011;45867;52.480;6.056;2022-07-18T12:31:43;8.20;;;2.40;;
60014;SDS011;45867;52.480;6.056;2022-07-18T12:36:34;6.23;;;2.47;;
60014;SDS011;45867;52.480;6.056;2022-07-18T12:38:59;7.83;;;2.67;;
60014;SDS011;45867;52.480;6.056;2022-07-18T12:41:28;10.20;;;2.33;;
60014;SDS011;45867;52.480;6.056;2022-07-18T12:43:54;4.93;;;2.22;;
60014;SDS011;45867;52.480;6.056;2022-07-18T12:46:19;7.80;;;2.50;;
60014;SDS011;45867;52.480;6.056;2022-07-18T12:48:44;9.57;;;2.37;;
60014;SDS011;45867;52.480;6.056;2022-07-18T12:51:10;8.23;;;2.40;;
60014;SDS011;45867;52.480;6.056;2022-07-18T12:53:38;6.32;;;2.40;;
60014;SDS011;45867;52.480;6.056;2022-07-18T12:56:04;11.88;;;2.42;;
60014;SDS011;45867;52.480;6.056;2022-07-18T12:58:30;7.18;;;2.45;;
60014;SDS011;45867;52.480;6.056;2022-07-18T13:00:55;6.32;;;2.45;;
60014;SDS011;45867;52.480;6.056;2022-07-18T13:03:21;10.05;;;2.60;;
60014;SDS011;45867;52.480;6.056;2022-07-18T13:05:46;10.98;;;2.70;;
60014;SDS011;45867;52.480;6.056;2022-07-18T13:08:12;10.25;;;2.35;;
60014;SDS011;45867;52.480;6.056;2022-07-18T13:10:37;7.83;;;2.40;;
60014;SDS011;45867;52.480;6.056;2022-07-18T13:13:03;4.78;;;2.42;;
60014;SDS011;45867;52.480;6.056;2022-07-18T13:15:29;8.18;;;2.38;;
60014;SDS011;45867;52.480;6.056;2022-07-18T13:17:54;11.03;;;2.40;;
60014;SDS011;45867;52.480;6.056;2022-07-18T13:20:20;4.60;;;2.25;;
60014;SDS011;45867;52.480;6.056;2022-07-18T13:22:45;5.30;;;2.30;;
60014;SDS011;45867;52.480;6.056;2022-07-18T13:25:10;5.65;;;2.17;;
60014;SDS011;45867;52.480;6.056;2022-07-18T13:27:35;10.00;;;2.67;;
60014;SDS011;45867;52.480;6.056;2022-07-18T13:30:01;9.52;;;2.50;;
60014;SDS011;45867;52.480;6.056;2022-07-18T13:32:28;5.22;;;2.22;;
60014;SDS011;45867;52.480;6.056;2022-07-18T13:34:54;7.78;;;2.60;;
60014;SDS011;45867;52.480;6.056;2022-07-18T13:37:19;5.55;;;2.30;;
60014;SDS011;45867;52.480;6.056;2022-07-18T13:39:57;7.60;;;2.30;;
60014;SDS011;45867;52.480;6.056;2022-07-18T13:42:23;6.47;;;2.30;;
60014;SDS011;45867;52.480;6.056;2022-07-18T13:44:48;11.13;;;2.57;;
60014;SDS011;45867;52.480;6.056;2022-07-18T13:47:14;6.50;;;2.33;;
60014;SDS011;45867;52.480;6.056;2022-07-18T13:49:39;5.70;;;2.60;;
60014;SDS011;45867;52.480;6.056;2022-07-18T13:52:04;5.90;;;2.30;;
60014;SDS011;45867;52.480;6.056;2022-07-18T13:54:30;6.53;;;2.50;;
60014;SDS011;45867;52.480;6.056;2022-07-18T13:56:55;6.15;;;2.60;;
60014;SDS011;45867;52.480;6.056;2022-07-18T13:59:20;5.03;;;2.58;;
60014;SDS011;45867;52.480;6.056;2022-07-18T14:01:46;5.43;;;2.13;;
60014;SDS011;45867;52.480;6.056;2022-07-18T14:04:11;5.63;;;2.15;;
60014;SDS011;45867;52.480;6.056;2022-07-18T14:06:36;6.30;;;2.30;;
60014;SDS011;45867;52.480;6.056;2022-07-18T14:09:05;7.07;;;2.43;;
60014;SDS011;45867;52.480;6.056;2022-07-18T14:11:30;7.40;;;2.60;;
60014;SDS011;45867;52.480;6.056;2022-07-18T14:13:57;6.63;;;2.53;;
60014;SDS011;45867;52.480;6.056;2022-07-18T14:16:22;8.15;;;2.50;;
60014;SDS011;45867;52.480;6.056;2022-07-18T14:18:48;5.40;;;2.60;;
60014;SDS011;45867;52.480;6.056;2022-07-18T14:21:13;9.67;;;2.97;;
60014;SDS011;45867;52.480;6.056;2022-07-18T14:23:38;5.20;;;2.37;;
60014;SDS011;45867;52.480;6.056;2022-07-18T14:26:03;8.07;;;2.50;;
60014;SDS011;45867;52.480;6.056;2022-07-18T14:28:29;14.73;;;2.83;;
60014;SDS011;45867;52.480;6.056;2022-07-18T14:30:54;8.83;;;2.40;;
60014;SDS011;45867;52.480;6.056;2022-07-18T14:33:19;8.37;;;2.60;;
60014;SDS011;45867;52.480;6.056;2022-07-18T14:35:44;7.13;;;2.33;;
60014;SDS011;45867;52.480;6.056;2022-07-18T14:38:13;5.63;;;2.30;;
60014;SDS011;45867;52.480;6.056;2022-07-18T14:40:38;9.15;;;2.40;;
60014;SDS011;45867;52.480;6.056;2022-07-18T14:43:03;14.63;;;2.65;;
60014;SDS011;45867;52.480;6.056;2022-07-18T14:45:44;6.53;;;2.60;;
60014;SDS011;45867;52.480;6.056;2022-07-18T14:48:09;5.07;;;2.78;;
60014;SDS011;45867;52.480;6.056;2022-07-18T14:50:35;8.95;;;2.60;;
60014;SDS011;45867;52.480;6.056;2022-07-18T14:53:00;7.67;;;2.77;;
60014;SDS011;45867;52.480;6.056;2022-07-18T14:55:25;8.70;;;2.70;;
60014;SDS011;45867;52.480;6.056;2022-07-18T14:57:51;5.15;;;2.20;;
60014;SDS011;45867;52.480;6.056;2022-07-18T15:00:16;15.23;;;2.63;;
60014;SDS011;45867;52.480;6.056;2022-07-18T15:02:41;6.35;;;2.50;;
60014;SDS011;45867;52.480;6.056;2022-07-18T15:05:07;7.35;;;2.60;;
60014;SDS011;45867;52.480;6.056;2022-07-18T15:07:33;7.95;;;2.53;;
60014;SDS011;45867;52.480;6.056;2022-07-18T15:09:58;14.35;;;2.33;;
60014;SDS011;45867;52.480;6.056;2022-07-18T15:12:23;7.35;;;2.50;;
60014;SDS011;45867;52.480;6.056;2022-07-18T15:14:49;9.73;;;2.70;;
60014;SDS011;45867;52.480;6.056;2022-07-18T15:17:14;4.70;;;2.37;;
60014;SDS011;45867;52.480;6.056;2022-07-18T15:19:39;6.43;;;2.70;;